Main page
METAR-TAF:

METAR-TAF

Airports :

Kit Carson County Airport

Burlington, Colorado, United States

latitude: 39-14-32N, longitude: 102-16-58W, elevation: 4215 ft

Current weather observation

The report was made 23 minutes ago, at 21:53 UTC
Wind 13 mph from the South with gusts up to 23 mph
Temperature 54°F
Humidity 30%
Pressure 29.79 in. Hg
Visibility: 10 miles
Clear sky

METAR: KITR 162153Z AUTO 18011G20KT 10SM CLR 12/M05 A2979 RMK AO2 SLP084 T01221050 $

Time: 15:16 (22:16 UTC)


TAF: missing

Weather observations and forecasts of more than 4000 airports (METAR and TAF reports).

The available stations are represented by yellow and red dots on the map.

Hover mouse over dot to see the name of the station.

Then click to see weather observations and forecasts.

To change the map : click on the green buttons with a black cross to zoom in, on the green button with a dash to zoom out, or on the green arrows for adjacent maps.


METAR-TAF: